Time;durP1;ratioP1;P1;durP2;ratioP2;P2;SDS_P1;SDS_P2;PMS_P1;PMS_P2;Temp;Humidity;BMP_temperature;BMP_pressure;BME280_temperature;BME280_humidity;BME280_pressure;Samples;Min_cycle;Max_cycle;Signal;HPM_P1;HPM_P2
2022/12/19 00:02:12;;;;;;;51.53;23.48;;;;;;;;;;5023223;28;19917;-85
2022/12/19 00:05:00;;;;;;;48.28;22.83;;;;;;;;;;5035199;28;20041;-85
2022/12/19 00:07:48;;;;;;;52.33;23.23;;;;;;;;;;5035053;28;20050;-85
2022/12/19 00:10:36;;;;;;;44.72;21.38;;;;;;;;;;5035827;28;20049;-83
2022/12/19 00:13:24;;;;;;;42.75;21.52;;;;;;;;;;5014154;28;20049;-85
2022/12/19 00:16:24;;;;;;;40.75;20.73;;;;;;;;;;5025685;28;20049;-83
2022/12/19 00:19:10;;;;;;;46.40;22.85;;;;;;;;;;5025563;28;20049;-83
2022/12/19 00:21:58;;;;;;;50.55;22.00;;;;;;;;;;5033508;28;20037;-83
2022/12/19 00:24:47;;;;;;;45.15;21.75;;;;;;;;;;5026003;28;20046;-84
2022/12/19 00:27:36;;;;;;;44.17;22.15;;;;;;;;;;5034477;28;20050;-85
2022/12/19 00:30:21;;;;;;;45.08;22.45;;;;;;;;;;5041289;28;20041;-85
2022/12/19 00:33:08;;;;;;;41.22;19.70;;;;;;;;;;5022514;28;20049;-85
2022/12/19 00:36:03;;;;;;;36.75;19.45;;;;;;;;;;5028789;28;20045;-86
2022/12/19 00:38:52;;;;;;;41.10;20.75;;;;;;;;;;5027051;28;20050;-84
2022/12/19 00:41:41;;;;;;;35.58;18.98;;;;;;;;;;5041674;28;20524;-84
2022/12/19 00:44:38;;;;;;;38.53;19.63;;;;;;;;;;5028964;28;20057;-87
2022/12/19 00:47:26;;;;;;;41.97;21.42;;;;;;;;;;5025240;28;20394;-86
2022/12/19 00:50:14;;;;;;;43.38;18.83;;;;;;;;;;5013568;28;20034;-84
2022/12/19 00:53:02;;;;;;;41.45;20.30;;;;;;;;;;5033441;28;20402;-84
2022/12/19 00:55:50;;;;;;;40.40;20.00;;;;;;;;;;5022028;28;20045;-86
2022/12/19 01:03:24;;;;;;;;;;;;;;;;;;;;;
2022/12/19 01:07:09;;;;;;;;;;;;;;;;;;;;;
2022/12/19 01:10:28;;;;;;;31.10;15.45;;;;;;;;;;5050097;28;20041;-86
2022/12/19 01:13:15;;;;;;;99.82;49.38;;;;;;;;;;5036068;28;20038;-87
2022/12/19 01:16:06;;;;;;;40.17;20.10;;;;;;;;;;5027280;28;20045;-82
2022/12/19 01:18:51;;;;;;;78.30;35.15;;;;;;;;;;5034542;28;20041;-83
2022/12/19 01:21:37;;;;;;;32.35;16.63;;;;;;;;;;5048748;28;20046;-85
2022/12/19 01:24:22;;;;;;;36.15;17.13;;;;;;;;;;5047365;28;20038;-83
2022/12/19 01:27:08;;;;;;;31.27;16.10;;;;;;;;;;5043838;28;20049;-82
2022/12/19 01:29:54;;;;;;;31.77;15.35;;;;;;;;;;5030166;28;20045;-83
2022/12/19 01:32:39;;;;;;;37.42;16.98;;;;;;;;;;5032811;28;20053;-84
2022/12/19 01:35:29;;;;;;;49.60;21.42;;;;;;;;;;5053514;28;20049;-82
2022/12/19 01:38:19;;;;;;;29.70;16.45;;;;;;;;;;5033458;28;20054;-83
2022/12/19 01:41:13;;;;;;;31.33;14.93;;;;;;;;;;5021946;28;20041;-83
2022/12/19 01:44:16;;;;;;;35.38;17.42;;;;;;;;;;5027918;28;20041;-82
2022/12/19 01:47:02;;;;;;;33.42;16.25;;;;;;;;;;5024823;28;20049;-82
2022/12/19 01:49:48;;;;;;;34.85;17.08;;;;;;;;;;5036750;28;20053;-82
2022/12/19 01:52:33;;;;;;;40.92;19.52;;;;;;;;;;5027986;28;20045;-83
2022/12/19 01:55:23;;;;;;;46.53;20.92;;;;;;;;;;5036025;28;20049;-82
2022/12/19 01:58:11;;;;;;;35.08;16.38;;;;;;;;;;5036290;28;20479;-82
2022/12/19 02:01:06;;;;;;;42.47;18.52;;;;;;;;;;5036949;28;20037;-82
2022/12/19 02:03:53;;;;;;;;;;;;;;;;;;5038535;28;20037;-82
2022/12/19 02:06:41;;;;;;;34.83;16.80;;;;;;;;;;5037779;28;19917;-83
2022/12/19 02:09:32;;;;;;;37.83;19.23;;;;;;;;;;5018464;28;20108;-82
2022/12/19 02:12:18;;;;;;;48.08;21.23;;;;;;;;;;5042516;28;20045;-83
2022/12/19 02:15:05;;;;;;;38.90;18.25;;;;;;;;;;5042002;28;20045;-82
2022/12/19 02:18:08;;;;;;;40.20;18.85;;;;;;;;;;5047730;28;20108;-82
2022/12/19 02:20:57;;;;;;;33.25;17.73;;;;;;;;;;5042995;28;20041;-82
2022/12/19 02:23:50;;;;;;;34.55;17.00;;;;;;;;;;5060184;28;20025;-81
2022/12/19 02:26:54;;;;;;;32.63;16.35;;;;;;;;;;5058029;28;20054;-85
2022/12/19 02:29:40;;;;;;;31.92;16.35;;;;;;;;;;5054537;28;20037;-83
2022/12/19 02:32:51;;;;;;;33.53;16.17;;;;;;;;;;5027820;28;20045;-83
2022/12/19 02:35:45;;;;;;;30.60;17.08;;;;;;;;;;5030492;28;20065;-83
2022/12/19 02:38:45;;;;;;;31.60;15.30;;;;;;;;;;5030127;28;20046;-85
2022/12/19 02:41:42;;;;;;;26.30;12.70;;;;;;;;;;5036480;28;20045;-84
2022/12/19 02:44:35;;;;;;;23.45;12.55;;;;;;;;;;5029427;28;20058;-84
2022/12/19 02:47:21;;;;;;;25.63;11.70;;;;;;;;;;5029577;28;20394;-84
2022/12/19 02:50:08;;;;;;;26.27;13.18;;;;;;;;;;5037598;28;20049;-84
2022/12/19 02:52:53;;;;;;;30.88;15.93;;;;;;;;;;5037089;28;20049;-84
2022/12/19 02:56:10;;;;;;;15.45;7.78;;;;;;;;;;5035929;28;20486;-84
2022/12/19 02:58:59;;;;;;;25.60;12.98;;;;;;;;;;5027211;28;20045;-84
2022/12/19 03:01:56;;;;;;;18.25;10.13;;;;;;;;;;5038754;28;20419;-83
2022/12/19 03:04:55;;;;;;;23.13;12.02;;;;;;;;;;5036613;28;20049;-84
2022/12/19 03:08:00;;;;;;;27.33;11.95;;;;;;;;;;5032271;28;20045;-84
2022/12/19 03:11:03;;;;;;;24.25;12.85;;;;;;;;;;5038206;28;20053;-84
2022/12/19 03:14:20;;;;;;;24.92;13.32;;;;;;;;;;5030167;28;20410;-85
2022/12/19 03:17:07;;;;;;;25.88;13.35;;;;;;;;;;5041255;28;20041;-84
2022/12/19 03:19:52;;;;;;;30.95;15.70;;;;;;;;;;5012711;28;20399;-84
2022/12/19 03:22:38;;;;;;;31.00;16.58;;;;;;;;;;5036408;28;20033;-83
2022/12/19 03:25:25;;;;;;;33.85;16.13;;;;;;;;;;5058507;28;20025;-83
2022/12/19 03:28:29;;;;;;;33.83;16.98;;;;;;;;;;5059080;28;20029;-82
2022/12/19 03:31:16;;;;;;;31.92;15.70;;;;;;;;;;5039227;28;20037;-82
2022/12/19 03:34:07;;;;;;;31.05;15.95;;;;;;;;;;5036276;28;20037;-82
2022/12/19 03:36:58;;;;;;;33.53;15.95;;;;;;;;;;5044344;28;20057;-83
2022/12/19 03:39:47;;;;;;;35.35;16.95;;;;;;;;;;5052015;28;20033;-83
2022/12/19 03:45:40;;;;;;;;;;;;;;;;;;5035043;28;20046;-82
2022/12/19 03:48:37;;;;;;;32.33;15.70;;;;;;;;;;5034290;28;19901;-82
2022/12/19 03:51:41;;;;;;;41.65;16.63;;;;;;;;;;5035545;28;20499;-83
2022/12/19 03:54:35;;;;;;;34.75;16.52;;;;;;;;;;5023412;28;20053;-84
2022/12/19 03:57:29;;;;;;;38.08;18.75;;;;;;;;;;5037810;28;20042;-83
2022/12/19 04:00:16;;;;;;;;;;;;;;;;;;5045472;28;20046;-83
2022/12/19 04:03:03;;;;;;;27.63;14.02;;;;;;;;;;5047520;28;19917;-83
2022/12/19 04:05:49;;;;;;;29.27;13.95;;;;;;;;;;5055137;28;20033;-83
2022/12/19 04:08:36;;;;;;;31.95;16.05;;;;;;;;;;5056097;28;20037;-83
2022/12/19 04:11:27;;;;;;;31.75;16.23;;;;;;;;;;5055068;28;20049;-83
2022/12/19 04:14:21;;;;;;;32.30;17.05;;;;;;;;;;5055741;28;20061;-83
2022/12/19 04:17:39;;;;;;;34.65;17.65;;;;;;;;;;5029920;28;20038;-82
2022/12/19 04:20:27;;;;;;;34.15;17.88;;;;;;;;;;5041052;28;20045;-83
2022/12/19 04:23:32;;;;;;;33.92;18.98;;;;;;;;;;5034285;28;20037;-83
2022/12/19 04:26:20;;;;;;;35.70;18.48;;;;;;;;;;5054634;28;20061;-83
2022/12/19 04:29:07;;;;;;;41.33;20.45;;;;;;;;;;5056522;28;20021;-83
2022/12/19 04:31:52;;;;;;;33.85;17.85;;;;;;;;;;5044093;28;20042;-83
2022/12/19 04:34:39;;;;;;;36.47;17.73;;;;;;;;;;5061870;28;20398;-84
2022/12/19 04:37:25;;;;;;;31.73;16.60;;;;;;;;;;5021570;28;20045;-84
2022/12/19 04:40:12;;;;;;;28.30;13.90;;;;;;;;;;5043401;28;20049;-84
2022/12/19 04:42:57;;;;;;;25.95;13.30;;;;;;;;;;5048177;28;20041;-84
2022/12/19 04:45:42;;;;;;;29.17;14.55;;;;;;;;;;5057323;28;20026;-84
2022/12/19 04:48:28;;;;;;;27.15;14.50;;;;;;;;;;5058321;28;20049;-84
2022/12/19 04:51:15;;;;;;;31.08;15.70;;;;;;;;;;5063359;28;20045;-83
2022/12/19 04:54:01;;;;;;;34.20;15.60;;;;;;;;;;5058576;28;20467;-84
2022/12/19 04:56:46;;;;;;;40.28;17.48;;;;;;;;;;5042272;28;20049;-84
2022/12/19 04:59:31;;;;;;;31.95;16.85;;;;;;;;;;5054527;28;20046;-83
2022/12/19 05:02:17;;;;;;;30.15;15.82;;;;;;;;;;5022034;28;20054;-83
2022/12/19 05:05:03;;;;;;;23.35;13.43;;;;;;;;;;5040025;28;20041;-84
2022/12/19 05:07:48;;;;;;;30.95;13.80;;;;;;;;;;5055525;28;20049;-84
2022/12/19 05:10:35;;;;;;;21.35;11.18;;;;;;;;;;5029442;28;20041;-83
2022/12/19 05:13:20;;;;;;;33.70;15.73;;;;;;;;;;5037255;28;20045;-83
2022/12/19 05:16:08;;;;;;;29.98;15.15;;;;;;;;;;5037286;28;20487;-83
2022/12/19 05:18:54;;;;;;;31.70;14.27;;;;;;;;;;5037343;28;20033;-83
2022/12/19 05:21:39;;;;;;;26.58;12.82;;;;;;;;;;5055114;28;20049;-84
2022/12/19 05:24:24;;;;;;;26.55;13.32;;;;;;;;;;5044850;28;20045;-83
2022/12/19 05:27:10;;;;;;;30.88;13.93;;;;;;;;;;5032395;28;20045;-84
2022/12/19 05:29:56;;;;;;;25.70;13.30;;;;;;;;;;5023952;28;20045;-84
2022/12/19 05:32:41;;;;;;;37.40;17.08;;;;;;;;;;5014861;28;20045;-84
2022/12/19 05:35:27;;;;;;;17.15;9.02;;;;;;;;;;5031923;28;20045;-84
2022/12/19 05:38:12;;;;;;;34.75;16.25;;;;;;;;;;5042671;28;20041;-84
2022/12/19 05:40:58;;;;;;;35.58;17.63;;;;;;;;;;5037637;28;20037;-84
2022/12/19 05:43:47;;;;;;;42.78;20.67;;;;;;;;;;5039615;28;20049;-84
2022/12/19 05:46:33;;;;;;;36.17;17.65;;;;;;;;;;5041470;28;20038;-84
2022/12/19 05:49:19;;;;;;;55.50;25.00;;;;;;;;;;5036536;28;20041;-86
2022/12/19 05:52:05;;;;;;;37.40;18.52;;;;;;;;;;5028037;28;20046;-85
2022/12/19 05:54:50;;;;;;;56.47;26.05;;;;;;;;;;5045594;28;20490;-84
2022/12/19 05:57:36;;;;;;;43.80;20.15;;;;;;;;;;5045858;28;20045;-86
2022/12/19 06:00:22;;;;;;;30.50;14.75;;;;;;;;;;5030266;28;20038;-86
2022/12/19 06:03:07;;;;;;;41.60;18.75;;;;;;;;;;5042553;28;20049;-84
2022/12/19 06:05:52;;;;;;;41.78;18.75;;;;;;;;;;5036591;28;20045;-84
2022/12/19 06:08:38;;;;;;;44.42;19.38;;;;;;;;;;5036059;28;20042;-83
2022/12/19 06:11:24;;;;;;;44.25;21.23;;;;;;;;;;5037123;28;20061;-83
2022/12/19 06:14:09;;;;;;;35.88;17.17;;;;;;;;;;5036714;28;20549;-85
2022/12/19 06:16:55;;;;;;;33.72;17.65;;;;;;;;;;5028950;28;20053;-84
2022/12/19 06:19:40;;;;;;;30.80;15.98;;;;;;;;;;5027874;28;20045;-85
2022/12/19 06:22:26;;;;;;;32.92;16.92;;;;;;;;;;5035454;28;20053;-85
2022/12/19 06:25:15;;;;;;;38.80;18.08;;;;;;;;;;5041432;28;20041;-85
2022/12/19 06:28:00;;;;;;;35.10;17.42;;;;;;;;;;5035722;28;20411;-84
2022/12/19 06:30:46;;;;;;;27.98;13.13;;;;;;;;;;5037341;28;20050;-86
2022/12/19 06:33:32;;;;;;;69.28;28.10;;;;;;;;;;5040414;28;20037;-87
2022/12/19 06:36:25;;;;;;;36.90;18.88;;;;;;;;;;5036841;28;20422;-85
2022/12/19 06:39:13;;;;;;;31.33;15.43;;;;;;;;;;5035657;28;20391;-82
2022/12/19 06:42:31;;;;;;;35.40;17.77;;;;;;;;;;5027121;28;20049;-83
2022/12/19 06:45:09;;;;;;;45.65;21.95;;;;;;;;;;5041969;28;20053;-83
2022/12/19 06:47:55;;;;;;;49.22;21.73;;;;;;;;;;5020517;28;20041;-83
2022/12/19 06:50:41;;;;;;;43.58;20.75;;;;;;;;;;5034932;28;20041;-83
2022/12/19 06:53:27;;;;;;;41.17;17.42;;;;;;;;;;5035214;28;20046;-84
2022/12/19 06:56:14;;;;;;;42.92;19.90;;;;;;;;;;5033809;28;20041;-83
2022/12/19 06:58:59;;;;;;;37.13;18.02;;;;;;;;;;5019205;28;20045;-83
2022/12/19 07:01:44;;;;;;;28.02;14.95;;;;;;;;;;5033752;28;20045;-82
2022/12/19 07:04:34;;;;;;;39.35;18.10;;;;;;;;;;5034338;28;20494;-82
2022/12/19 07:07:19;;;;;;;47.30;23.58;;;;;;;;;;5034674;28;20061;-82
2022/12/19 07:10:06;;;;;;;30.88;15.40;;;;;;;;;;5035001;28;20049;-83
2022/12/19 07:12:51;;;;;;;40.13;20.52;;;;;;;;;;5040380;28;20042;-83
2022/12/19 07:15:37;;;;;;;37.67;18.63;;;;;;;;;;5026290;28;20045;-83
2022/12/19 07:18:23;;;;;;;41.15;18.60;;;;;;;;;;5040797;28;20049;-83
2022/12/19 07:21:12;;;;;;;45.78;20.20;;;;;;;;;;5035950;28;20407;-83
2022/12/19 07:23:59;;;;;;;29.77;13.40;;;;;;;;;;5038801;28;20046;-83
2022/12/19 07:26:44;;;;;;;41.78;20.50;;;;;;;;;;5034694;28;20486;-82
2022/12/19 07:29:30;;;;;;;46.35;20.83;;;;;;;;;;5034596;28;20049;-81
2022/12/19 07:32:15;;;;;;;47.65;22.45;;;;;;;;;;5019955;28;20491;-83
2022/12/19 07:35:00;;;;;;;46.60;22.55;;;;;;;;;;5034227;28;20045;-77
2022/12/19 07:37:45;;;;;;;46.92;22.35;;;;;;;;;;5034206;28;20041;-77
2022/12/19 07:40:32;;;;;;;27.75;11.32;;;;;;;;;;5040443;28;20049;-77
2022/12/19 07:43:18;;;;;;;19.00;10.73;;;;;;;;;;5040719;28;20393;-78
2022/12/19 07:46:03;;;;;;;36.88;17.58;;;;;;;;;;5033449;28;20046;-78
2022/12/19 07:48:49;;;;;;;48.55;23.02;;;;;;;;;;5040612;28;20148;-79
2022/12/19 07:51:35;;;;;;;37.70;18.48;;;;;;;;;;5033849;28;20049;-78
2022/12/19 07:54:20;;;;;;;28.95;11.60;;;;;;;;;;5054917;28;20057;-76
2022/12/19 07:57:06;;;;;;;34.45;17.50;;;;;;;;;;5043648;28;20049;-80
2022/12/19 07:59:51;;;;;;;29.58;14.50;;;;;;;;;;5034745;28;20045;-78
2022/12/19 08:02:37;;;;;;;53.38;25.08;;;;;;;;;;5033658;28;20038;-77
2022/12/19 08:05:22;;;;;;;29.88;12.98;;;;;;;;;;5033541;28;20046;-78
2022/12/19 08:08:08;;;;;;;24.55;12.25;;;;;;;;;;5032993;28;20041;-77
2022/12/19 08:10:53;;;;;;;24.55;12.50;;;;;;;;;;5033387;28;20395;-77
2022/12/19 08:13:40;;;;;;;34.78;16.88;;;;;;;;;;5033437;28;20037;-77
2022/12/19 08:16:26;;;;;;;21.38;13.02;;;;;;;;;;5040219;28;20065;-77
2022/12/19 08:19:11;;;;;;;20.27;11.07;;;;;;;;;;5033751;28;20041;-78
2022/12/19 08:21:57;;;;;;;49.03;22.50;;;;;;;;;;5033235;28;20053;-78
2022/12/19 08:24:42;;;;;;;72.03;33.63;;;;;;;;;;5033575;28;20041;-78
2022/12/19 08:27:28;;;;;;;37.28;20.05;;;;;;;;;;5033958;28;20041;-78
2022/12/19 08:30:14;;;;;;;40.60;20.33;;;;;;;;;;5033431;28;20049;-78
2022/12/19 08:32:59;;;;;;;19.23;8.93;;;;;;;;;;5018655;28;20054;-78
2022/12/19 08:35:44;;;;;;;39.72;19.15;;;;;;;;;;5039954;28;20041;-79
2022/12/19 08:38:30;;;;;;;51.28;21.63;;;;;;;;;;5033476;28;20041;-79
2022/12/19 08:41:17;;;;;;;37.42;18.70;;;;;;;;;;5013487;28;20050;-79
2022/12/19 08:44:02;;;;;;;33.53;14.30;;;;;;;;;;5012673;28;20046;-78
2022/12/19 08:46:47;;;;;;;22.30;10.93;;;;;;;;;;5020019;28;20046;-78
2022/12/19 08:49:33;;;;;;;22.35;12.85;;;;;;;;;;5017835;28;20049;-78
2022/12/19 08:52:18;;;;;;;33.78;16.45;;;;;;;;;;5026817;28;20046;-78
2022/12/19 08:55:04;;;;;;;29.17;13.88;;;;;;;;;;5020812;28;20049;-77
2022/12/19 08:57:50;;;;;;;30.55;15.63;;;;;;;;;;5018941;28;20046;-77
2022/12/19 09:00:36;;;;;;;30.80;15.93;;;;;;;;;;5011651;28;20067;-78
2022/12/19 09:03:21;;;;;;;26.13;12.38;;;;;;;;;;5012099;28;20038;-78
2022/12/19 09:06:09;;;;;;;15.85;8.90;;;;;;;;;;5018407;28;20041;-78
2022/12/19 09:08:54;;;;;;;24.05;11.73;;;;;;;;;;5012384;28;20168;-77
2022/12/19 09:11:39;;;;;;;28.13;14.18;;;;;;;;;;5011328;28;20050;-78
2022/12/19 09:14:25;;;;;;;24.80;13.02;;;;;;;;;;5012503;28;20046;-78
2022/12/19 09:17:11;;;;;;;26.58;13.30;;;;;;;;;;5012326;28;20046;-78
2022/12/19 09:19:56;;;;;;;23.38;11.73;;;;;;;;;;5021875;28;20046;-78
2022/12/19 09:22:42;;;;;;;22.00;12.95;;;;;;;;;;5021667;28;20042;-79
2022/12/19 09:25:27;;;;;;;23.65;12.43;;;;;;;;;;5000406;28;20460;-78
2022/12/19 09:28:12;;;;;;;28.15;12.55;;;;;;;;;;5022298;28;20491;-78
2022/12/19 09:31:03;;;;;;;27.67;14.25;;;;;;;;;;5015052;28;20046;-77
2022/12/19 09:33:49;;;;;;;21.23;11.25;;;;;;;;;;5022160;28;20050;-78
2022/12/19 09:36:34;;;;;;;22.85;10.82;;;;;;;;;;5015485;28;20053;-79
2022/12/19 09:39:19;;;;;;;20.42;11.15;;;;;;;;;;5000717;28;20046;-78
2022/12/19 09:42:39;;;;;;;25.73;13.88;;;;;;;;;;5015020;28;20511;-78
2022/12/19 09:45:43;;;;;;;23.45;11.55;;;;;;;;;;5021868;28;20049;-78
2022/12/19 09:48:29;;;;;;;16.65;9.02;;;;;;;;;;5014202;28;20050;-78
2022/12/19 09:51:38;;;;;;;32.55;15.10;;;;;;;;;;5014613;28;20479;-78
2022/12/19 09:57:41;;;;;;;29.58;15.32;;;;;;;;;;5070236;28;20388;-77
2022/12/19 10:00:36;;;;;;;11.60;7.10;;;;;;;;;;5070228;28;20049;-77
2022/12/19 10:03:28;;;;;;;17.95;9.77;;;;;;;;;;5075125;28;20044;-77
2022/12/19 10:06:20;;;;;;;18.20;10.13;;;;;;;;;;5070025;28;20490;-77
2022/12/19 10:09:18;;;;;;;39.80;19.20;;;;;;;;;;5085439;28;20037;-79
2022/12/19 10:12:16;;;;;;;23.40;12.38;;;;;;;;;;5089885;28;20048;-77
2022/12/19 10:15:08;;;;;;;21.88;9.63;;;;;;;;;;5070255;28;20490;-77
2022/12/19 10:18:21;;;;;;;25.20;13.00;;;;;;;;;;5069925;28;20049;-76
2022/12/19 10:21:17;;;;;;;22.00;8.93;;;;;;;;;;5070259;28;20053;-77
2022/12/19 10:24:32;;;;;;;23.42;11.80;;;;;;;;;;5070712;28;20040;-78
2022/12/19 10:27:28;;;;;;;18.17;9.23;;;;;;;;;;5069643;28;20048;-78
2022/12/19 10:30:14;;;;;;;15.52;9.25;;;;;;;;;;5070225;28;20048;-77
2022/12/19 10:33:40;;;;;;;21.73;10.40;;;;;;;;;;5069781;28;20044;-78
2022/12/19 10:36:26;;;;;;;21.63;9.80;;;;;;;;;;5069145;28;20053;-78
2022/12/19 10:39:22;;;;;;;19.83;10.50;;;;;;;;;;5069989;28;20049;-78
2022/12/19 10:42:43;;;;;;;18.38;9.75;;;;;;;;;;5069718;28;20049;-78
2022/12/19 10:45:37;;;;;;;22.85;10.23;;;;;;;;;;5066265;28;20044;-77
2022/12/19 10:48:23;;;;;;;;;;;;;;;;;;5070299;28;20049;-77
2022/12/19 10:51:21;;;;;;;26.38;14.32;;;;;;;;;;5069867;28;19917;-77
2022/12/19 10:54:07;;;;;;;22.90;10.57;;;;;;;;;;5069251;28;20295;-77
2022/12/19 10:56:53;;;;;;;18.88;10.90;;;;;;;;;;5068432;28;20044;-79
2022/12/19 10:59:38;;;;;;;18.10;8.93;;;;;;;;;;5069345;28;20393;-78
2022/12/19 11:02:49;;;;;;;22.95;11.70;;;;;;;;;;5069621;28;20136;-77
2022/12/19 11:05:55;;;;;;;22.13;12.18;;;;;;;;;;5069524;28;20041;-76
2022/12/19 11:08:40;;;;;;;30.30;13.57;;;;;;;;;;5056333;28;20049;-78
2022/12/19 11:11:33;;;;;;;16.33;8.35;;;;;;;;;;5062776;28;20045;-78
2022/12/19 11:14:24;;;;;;;16.20;8.90;;;;;;;;;;5056254;28;20049;-77
2022/12/19 11:17:48;;;;;;;28.38;13.23;;;;;;;;;;5055653;28;20406;-78
2022/12/19 11:20:33;;;;;;;17.38;10.48;;;;;;;;;;5000221;28;20057;-77
2022/12/19 11:23:19;;;;;;;73.22;33.92;;;;;;;;;;5014028;28;20038;-78
2022/12/19 11:26:05;;;;;;;79.43;36.15;;;;;;;;;;5050077;28;20053;-77
2022/12/19 11:28:51;;;;;;;53.10;30.33;;;;;;;;;;5055931;28;20041;-78
2022/12/19 11:31:36;;;;;;;24.70;14.65;;;;;;;;;;5055811;28;20045;-78
2022/12/19 11:34:23;;;;;;;24.45;14.40;;;;;;;;;;5055520;28;20044;-77
2022/12/19 11:37:26;;;;;;;24.45;13.15;;;;;;;;;;5061438;28;20040;-77
2022/12/19 11:40:16;;;;;;;19.42;10.93;;;;;;;;;;5055834;28;20339;-78
2022/12/19 11:43:11;;;;;;;16.83;9.52;;;;;;;;;;5055590;28;20053;-78
2022/12/19 11:46:07;;;;;;;31.27;17.65;;;;;;;;;;5055419;28;20045;-78
2022/12/19 11:49:01;;;;;;;20.40;11.27;;;;;;;;;;5055418;28;20041;-78
2022/12/19 11:51:46;;;;;;;22.67;12.85;;;;;;;;;;5055217;28;20045;-77
2022/12/19 11:54:41;;;;;;;14.80;8.52;;;;;;;;;;5055011;28;20049;-77
2022/12/19 11:57:27;;;;;;;28.42;13.20;;;;;;;;;;5054887;28;20048;-78
2022/12/19 12:00:19;;;;;;;24.30;12.18;;;;;;;;;;5055249;28;20056;-78
2022/12/19 12:03:06;;;;;;;21.00;11.90;;;;;;;;;;5061620;28;20041;-78
2022/12/19 12:05:54;;;;;;;26.98;13.15;;;;;;;;;;5054914;28;20045;-78
2022/12/19 12:09:16;;;;;;;25.42;13.10;;;;;;;;;;5055024;28;20045;-78
2022/12/19 12:12:33;;;;;;;26.70;14.95;;;;;;;;;;5055170;28;20048;-80
2022/12/19 12:15:47;;;;;;;17.17;11.50;;;;;;;;;;5055042;28;20044;-78
2022/12/19 12:18:52;;;;;;;23.92;10.98;;;;;;;;;;5054246;28;20399;-78
2022/12/19 12:22:15;;;;;;;33.47;16.73;;;;;;;;;;5054912;28;20510;-78
2022/12/19 12:25:24;;;;;;;28.40;15.20;;;;;;;;;;5060616;28;20434;-78
2022/12/19 12:28:31;;;;;;;36.38;16.92;;;;;;;;;;5080041;28;20032;-77
2022/12/19 12:31:32;;;;;;;25.25;13.48;;;;;;;;;;5055134;28;20053;-77
2022/12/19 12:34:43;;;;;;;19.50;10.65;;;;;;;;;;5060620;28;20040;-77
2022/12/19 12:37:43;;;;;;;47.40;24.88;;;;;;;;;;5054020;28;20049;-78
2022/12/19 12:41:05;;;;;;;36.42;19.05;;;;;;;;;;5054430;28;20049;-78
2022/12/19 12:44:07;;;;;;;48.80;22.48;;;;;;;;;;5012767;28;20053;-77
2022/12/19 12:47:01;;;;;;;27.45;14.88;;;;;;;;;;5054254;28;20081;-79
2022/12/19 12:49:59;;;;;;;25.85;12.45;;;;;;;;;;5060565;28;20049;-77
2022/12/19 12:52:47;;;;;;;29.83;14.43;;;;;;;;;;5054344;28;20037;-78
2022/12/19 12:55:40;;;;;;;36.80;18.75;;;;;;;;;;5054037;28;20048;-77
2022/12/19 12:58:40;;;;;;;27.23;16.35;;;;;;;;;;5053824;28;20048;-78
2022/12/19 13:01:37;;;;;;;28.65;13.50;;;;;;;;;;5052363;28;20491;-81
2022/12/19 13:04:34;;;;;;;31.15;14.35;;;;;;;;;;5053968;28;20049;-80
2022/12/19 13:07:53;;;;;;;28.95;13.52;;;;;;;;;;5053492;28;20044;-80
2022/12/19 13:10:56;;;;;;;18.50;11.10;;;;;;;;;;5060638;28;20394;-79
2022/12/19 13:13:52;;;;;;;74.40;30.98;;;;;;;;;;5053639;28;20045;-78
2022/12/19 13:16:44;;;;;;;99.65;39.17;;;;;;;;;;5052888;28;20045;-79
2022/12/19 13:19:38;;;;;;;39.03;18.70;;;;;;;;;;5053825;28;20037;-78
2022/12/19 13:22:29;;;;;;;54.88;27.52;;;;;;;;;;5054031;28;20402;-78
2022/12/19 13:25:44;;;;;;;36.85;18.55;;;;;;;;;;5053775;28;20041;-77
2022/12/19 13:28:29;;;;;;;24.13;13.30;;;;;;;;;;5050233;28;20061;-78
2022/12/19 13:31:16;;;;;;;26.70;15.25;;;;;;;;;;5060266;28;20037;-79
2022/12/19 13:34:17;;;;;;;29.73;15.60;;;;;;;;;;5060200;28;20045;-77
2022/12/19 13:37:08;;;;;;;28.85;15.55;;;;;;;;;;5053262;28;20041;-78
2022/12/19 13:39:54;;;;;;;43.75;21.73;;;;;;;;;;5053828;28;20037;-79
2022/12/19 13:46:05;;;;;;;34.22;19.23;;;;;;;;;;5053333;28;20490;-78
2022/12/19 13:48:55;;;;;;;24.90;13.30;;;;;;;;;;5053845;28;20052;-78
2022/12/19 13:51:45;;;;;;;35.78;18.50;;;;;;;;;;5052886;28;20049;-78
2022/12/19 13:54:36;;;;;;;80.03;38.67;;;;;;;;;;5053416;28;20041;-78
2022/12/19 13:57:25;;;;;;;33.03;16.55;;;;;;;;;;5052528;28;20402;-78
2022/12/19 14:00:30;;;;;;;31.30;17.80;;;;;;;;;;5060161;28;20045;-78
2022/12/19 14:03:20;;;;;;;23.00;11.93;;;;;;;;;;5059751;28;20048;-78
2022/12/19 14:06:15;;;;;;;42.30;19.02;;;;;;;;;;5053145;28;20290;-79
2022/12/19 14:09:07;;;;;;;36.65;17.13;;;;;;;;;;5053328;28;20041;-79
2022/12/19 14:11:57;;;;;;;26.90;14.00;;;;;;;;;;5053045;28;20045;-78
2022/12/19 14:17:54;;;;;;;40.53;22.30;;;;;;;;;;5052382;28;20398;-80
2022/12/19 14:20:40;;;;;;;42.08;18.55;;;;;;;;;;5052614;28;20049;-78
2022/12/19 14:23:25;;;;;;;40.70;18.15;;;;;;;;;;5053363;28;20045;-79
2022/12/19 14:26:28;;;;;;;60.67;30.38;;;;;;;;;;5051988;28;20061;-78
2022/12/19 14:29:22;;;;;;;45.72;23.00;;;;;;;;;;5052452;28;20053;-79
2022/12/19 14:32:08;;;;;;;38.17;19.83;;;;;;;;;;5052316;28;20041;-79
2022/12/19 14:34:53;;;;;;;31.27;15.25;;;;;;;;;;5059765;28;20049;-79
2022/12/19 14:37:43;;;;;;;41.63;20.88;;;;;;;;;;5052745;28;20052;-77
2022/12/19 14:40:31;;;;;;;32.38;18.60;;;;;;;;;;5067818;28;20049;-76
2022/12/19 14:43:38;;;;;;;60.72;31.90;;;;;;;;;;5075396;28;20494;-77
2022/12/19 14:46:28;;;;;;;34.67;18.60;;;;;;;;;;5063440;28;20041;-78
2022/12/19 14:49:32;;;;;;;40.95;22.17;;;;;;;;;;5056620;28;20390;-78
2022/12/19 14:52:36;;;;;;;26.88;15.18;;;;;;;;;;5062980;28;20045;-79
2022/12/19 14:55:34;;;;;;;42.70;18.55;;;;;;;;;;5056328;28;20048;-79
2022/12/19 14:58:30;;;;;;;37.05;19.27;;;;;;;;;;5062141;28;20053;-79
2022/12/19 15:01:21;;;;;;;45.15;23.50;;;;;;;;;;5062942;28;20406;-79
2022/12/19 15:04:14;;;;;;;59.78;26.33;;;;;;;;;;5055970;28;20045;-78
2022/12/19 15:07:06;;;;;;;49.33;25.30;;;;;;;;;;5056257;28;20045;-78
2022/12/19 15:10:06;;;;;;;54.15;25.55;;;;;;;;;;5056188;28;20045;-78
2022/12/19 15:13:21;;;;;;;52.05;23.77;;;;;;;;;;5056458;28;20033;-78
2022/12/19 15:16:33;;;;;;;58.88;28.60;;;;;;;;;;5056170;28;20041;-79
2022/12/19 15:19:18;;;;;;;101.50;41.90;;;;;;;;;;5062731;28;20475;-77
2022/12/19 15:22:03;;;;;;;204.00;86.00;;;;;;;;;;5062455;28;20045;-77
2022/12/19 15:24:48;;;;;;;152.77;60.50;;;;;;;;;;5055880;28;20044;-80
2022/12/19 15:27:34;;;;;;;131.57;54.30;;;;;;;;;;5055899;28;20057;-78
2022/12/19 15:30:22;;;;;;;122.70;50.08;;;;;;;;;;5055877;28;20040;-78
2022/12/19 15:33:14;;;;;;;111.43;49.92;;;;;;;;;;5062307;28;20052;-79
2022/12/19 15:36:00;;;;;;;94.85;40.85;;;;;;;;;;5055588;28;20040;-79
2022/12/19 15:38:45;;;;;;;85.65;35.00;;;;;;;;;;5055479;28;20045;-80
2022/12/19 15:41:31;;;;;;;88.90;38.53;;;;;;;;;;5055662;28;20049;-79
2022/12/19 15:44:30;;;;;;;83.03;35.97;;;;;;;;;;5055154;28;20048;-79
2022/12/19 15:47:32;;;;;;;100.32;39.58;;;;;;;;;;5055287;28;20049;-79
2022/12/19 15:50:24;;;;;;;88.05;39.53;;;;;;;;;;5055334;28;20045;-79
2022/12/19 15:53:24;;;;;;;146.70;58.88;;;;;;;;;;5054832;28;20044;-76
2022/12/19 15:56:24;;;;;;;149.57;60.17;;;;;;;;;;5054388;28;20048;-78
2022/12/19 15:59:20;;;;;;;112.55;48.60;;;;;;;;;;5054535;28;20045;-78
2022/12/19 16:02:20;;;;;;;100.85;41.42;;;;;;;;;;5047065;28;20033;-78
2022/12/19 16:05:06;;;;;;;88.20;37.97;;;;;;;;;;5047156;28;20045;-78
2022/12/19 16:07:51;;;;;;;88.53;40.55;;;;;;;;;;5045785;28;20041;-79
2022/12/19 16:10:37;;;;;;;103.18;43.63;;;;;;;;;;5046608;28;20390;-79
2022/12/19 16:13:30;;;;;;;112.25;48.08;;;;;;;;;;5046201;28;20040;-78
2022/12/19 16:16:16;;;;;;;96.25;43.45;;;;;;;;;;5045522;28;20033;-79
2022/12/19 16:19:01;;;;;;;146.38;71.38;;;;;;;;;;5046376;28;20042;-78
2022/12/19 16:21:47;;;;;;;63.35;31.27;;;;;;;;;;5046516;28;20045;-78
2022/12/19 16:24:32;;;;;;;64.80;34.72;;;;;;;;;;5046484;28;20041;-78
2022/12/19 16:27:23;;;;;;;52.92;27.63;;;;;;;;;;5046287;28;20041;-80
2022/12/19 16:30:21;;;;;;;55.95;26.90;;;;;;;;;;5047735;28;20053;-85
2022/12/19 16:33:17;;;;;;;52.05;26.80;;;;;;;;;;5061018;28;20045;-80
2022/12/19 16:36:03;;;;;;;58.60;29.75;;;;;;;;;;5054504;28;20395;-81
2022/12/19 16:38:49;;;;;;;43.28;22.30;;;;;;;;;;5054183;28;20053;-81
2022/12/19 16:41:34;;;;;;;114.22;52.42;;;;;;;;;;5053594;28;20045;-81
2022/12/19 16:44:21;;;;;;;137.30;64.80;;;;;;;;;;5056225;28;20044;-80
2022/12/19 16:47:16;;;;;;;92.78;43.53;;;;;;;;;;5060383;28;20049;-82
2022/12/19 16:50:14;;;;;;;90.43;44.08;;;;;;;;;;5054153;28;20041;-79
2022/12/19 16:52:59;;;;;;;81.60;37.13;;;;;;;;;;5053946;28;20045;-79
2022/12/19 16:55:46;;;;;;;56.10;27.95;;;;;;;;;;5063672;28;20045;-79
2022/12/19 16:58:32;;;;;;;43.88;23.13;;;;;;;;;;5075047;28;20041;-79
2022/12/19 17:01:17;;;;;;;56.80;25.98;;;;;;;;;;5064668;28;20048;-80